Terminal Aerodrome Forecast
Issued by NWS North Platte, NE

Home | Current Version | Previous Version | Text Only | Print | Product List | Glossary On
Versions: 1 2 3 4 5 6 7 8 9 10 11 12 13 14 15 16 17 18 19 20 21 22
119
FTUS43 KLBF 281557 AAB
TAFLBF
TAF AMD
KLBF 281557Z 2816/2912 11011KT 2SM -RA BR OVC003
     FM281800 11012G19KT 3SM -RA BR OVC006
     FM290200 07012KT 4SM -RA OVC006
     FM291000 04008KT 4SM -RA OVC004=

USA.gov is the U.S. government's official web portal to all federal, state and local government web resources and services.